createdAt,value
2022-11-20T00:00:51.983Z,21.14
2022-11-20T00:03:18.680Z,21.17
2022-11-20T00:05:45.397Z,21.20
2022-11-20T00:08:12.108Z,21.22
2022-11-20T00:10:39.056Z,21.23
2022-11-20T00:13:06.032Z,21.24
2022-11-20T00:15:32.820Z,21.26
2022-11-20T00:17:59.573Z,21.27
2022-11-20T00:20:26.236Z,21.28
2022-11-20T00:22:52.861Z,21.28
2022-11-20T00:25:19.518Z,21.29
2022-11-20T00:27:46.336Z,21.29
2022-11-20T00:30:15.022Z,21.29
2022-11-20T00:32:41.956Z,21.28
2022-11-20T00:35:08.760Z,21.27
2022-11-20T00:37:35.414Z,21.28
2022-11-20T00:40:02.108Z,21.26
2022-11-20T00:42:34.066Z,21.26
2022-11-20T00:45:00.751Z,21.26
2022-11-20T00:47:27.347Z,21.26
2022-11-20T00:49:54.005Z,21.26
2022-11-20T00:52:20.685Z,21.23
2022-11-20T00:54:47.289Z,21.23
2022-11-20T00:57:13.935Z,21.22
2022-11-20T00:59:40.552Z,21.21
2022-11-20T01:02:07.285Z,21.20
2022-11-20T01:04:33.916Z,21.19
2022-11-20T01:07:00.632Z,21.17
2022-11-20T01:09:27.303Z,21.15
2022-11-20T01:11:54.044Z,21.13
2022-11-20T01:14:20.977Z,21.12
2022-11-20T01:16:49.512Z,21.10
2022-11-20T01:19:20.767Z,21.08
2022-11-20T01:21:49.118Z,21.04
2022-11-20T01:24:16.538Z,21.02
2022-11-20T01:26:44.173Z,21.02
2022-11-20T01:29:14.742Z,21.00
2022-11-20T01:31:41.435Z,20.96
2022-11-20T01:34:10.962Z,20.97
2022-11-20T01:36:38.608Z,20.95
2022-11-20T01:39:06.740Z,20.94
2022-11-20T01:41:52.756Z,20.92
2022-11-20T01:44:21.332Z,20.91
2022-11-20T01:46:57.518Z,20.90
2022-11-20T01:49:27.432Z,20.88
2022-11-20T01:51:56.155Z,20.85
2022-11-20T01:54:38.621Z,20.86
2022-11-20T01:57:06.112Z,20.86
2022-11-20T01:59:32.780Z,20.84
2022-11-20T02:01:59.535Z,20.82
2022-11-20T02:04:26.762Z,20.86
2022-11-20T02:06:56.619Z,20.84
2022-11-20T02:09:23.643Z,20.84
2022-11-20T02:11:50.460Z,20.83
2022-11-20T02:14:17.208Z,20.80
2022-11-20T02:16:48.054Z,20.79
2022-11-20T02:19:24.554Z,20.82
2022-11-20T02:22:01.115Z,20.82
2022-11-20T02:24:27.942Z,20.81
2022-11-20T02:26:56.200Z,20.81
2022-11-20T02:29:28.073Z,20.81
2022-11-20T02:31:56.386Z,20.79
2022-11-20T02:34:22.990Z,20.78
2022-11-20T02:36:50.782Z,20.77
2022-11-20T02:39:20.462Z,20.75
2022-11-20T02:41:47.365Z,20.70
2022-11-20T02:44:13.988Z,20.75
2022-11-20T02:46:40.587Z,20.71
2022-11-20T02:49:07.279Z,20.74
2022-11-20T02:51:33.947Z,20.71
2022-11-20T02:54:00.770Z,20.71
2022-11-20T02:56:27.420Z,20.68
2022-11-20T02:58:54.084Z,20.69
2022-11-20T03:01:20.779Z,20.68
2022-11-20T03:03:49.630Z,20.66
2022-11-20T03:06:17.288Z,20.63
2022-11-20T03:08:43.894Z,20.63
2022-11-20T03:11:10.528Z,20.62
2022-11-20T03:13:37.326Z,20.64
2022-11-20T03:16:14.229Z,20.60
2022-11-20T03:18:41.286Z,20.62
2022-11-20T03:21:08.449Z,20.55
2022-11-20T03:23:35.288Z,20.53
2022-11-20T03:26:22.150Z,20.53
2022-11-20T03:29:09.017Z,20.53
2022-11-20T03:31:41.580Z,20.51
2022-11-20T03:34:09.141Z,20.48
2022-11-20T03:36:35.815Z,20.48
2022-11-20T03:39:02.393Z,20.45
2022-11-20T03:41:30.473Z,20.41
2022-11-20T03:43:58.804Z,20.41
2022-11-20T03:46:26.103Z,20.40
2022-11-20T03:48:53.293Z,20.36
2022-11-20T03:51:21.609Z,20.34
2022-11-20T03:53:48.729Z,20.35
2022-11-20T03:56:16.148Z,20.32
2022-11-20T03:58:42.858Z,20.29
2022-11-20T04:01:15.142Z,20.28
2022-11-20T04:03:42.264Z,20.26
2022-11-20T04:06:11.732Z,20.26
2022-11-20T04:08:38.696Z,20.22
2022-11-20T04:11:11.420Z,20.20
2022-11-20T04:13:38.424Z,20.17
2022-11-20T04:16:05.986Z,20.17
2022-11-20T04:18:35.492Z,20.16
2022-11-20T04:21:02.154Z,20.13
2022-11-20T04:23:29.107Z,20.12
2022-11-20T04:25:55.881Z,20.14
2022-11-20T04:28:22.488Z,20.09
2022-11-20T04:30:49.083Z,20.10
2022-11-20T04:33:15.694Z,20.09
2022-11-20T04:35:42.366Z,20.09
2022-11-20T04:38:08.979Z,20.05
2022-11-20T04:40:35.675Z,20.03
2022-11-20T04:43:02.251Z,19.99
2022-11-20T04:45:28.893Z,20.01
2022-11-20T04:47:55.519Z,20.00
2022-11-20T04:50:22.197Z,19.95
2022-11-20T04:52:51.939Z,19.94
2022-11-20T04:55:18.586Z,19.92
2022-11-20T04:57:45.163Z,19.92
2022-11-20T05:00:12.224Z,19.92
2022-11-20T05:02:38.920Z,19.90
2022-11-20T05:05:05.794Z,19.92
2022-11-20T05:07:32.482Z,19.90
2022-11-20T05:09:59.156Z,19.90
2022-11-20T05:12:25.808Z,19.88
2022-11-20T05:14:52.551Z,19.87
2022-11-20T05:17:19.130Z,19.87
2022-11-20T05:19:48.366Z,19.85
2022-11-20T05:22:18.558Z,19.86
2022-11-20T05:24:45.210Z,19.85
2022-11-20T05:27:11.859Z,19.81
2022-11-20T05:29:38.430Z,19.81
2022-11-20T05:32:06.970Z,19.80
2022-11-20T05:34:33.578Z,19.84
2022-11-20T05:37:00.232Z,19.80
2022-11-20T05:39:26.928Z,19.79
2022-11-20T05:42:13.471Z,19.80
2022-11-20T05:44:40.429Z,19.77
2022-11-20T05:47:07.187Z,19.78
2022-11-20T05:49:34.060Z,19.78
2022-11-20T05:52:00.720Z,19.76
2022-11-20T05:54:27.488Z,19.73
2022-11-20T05:56:54.061Z,19.74
2022-11-20T05:59:20.865Z,19.74
2022-11-20T06:01:47.577Z,19.74
2022-11-20T06:04:14.211Z,19.68
2022-11-20T06:06:40.871Z,19.70
2022-11-20T06:09:07.464Z,19.67
2022-11-20T06:11:34.016Z,19.67
2022-11-20T06:14:00.612Z,19.67
2022-11-20T06:16:27.345Z,19.65
2022-11-20T06:18:53.986Z,19.64
2022-11-20T06:21:21.775Z,19.67
2022-11-20T06:23:49.181Z,19.60
2022-11-20T06:26:22.884Z,19.58
2022-11-20T06:28:49.954Z,19.62
2022-11-20T06:31:17.821Z,19.59
2022-11-20T06:33:44.701Z,19.57
2022-11-20T06:36:12.568Z,19.59
2022-11-20T06:38:39.748Z,19.57
2022-11-20T06:41:11.521Z,19.58
2022-11-20T06:43:38.180Z,19.58
2022-11-20T06:46:05.733Z,19.60
2022-11-20T06:48:32.842Z,19.57
2022-11-20T06:50:59.816Z,19.56
2022-11-20T06:53:27.923Z,19.57
2022-11-20T06:55:57.339Z,19.54
2022-11-20T06:58:23.947Z,19.56
2022-11-20T07:00:50.710Z,19.54
2022-11-20T07:03:17.318Z,19.53
2022-11-20T07:05:44.023Z,19.55
2022-11-20T07:08:10.615Z,19.56
2022-11-20T07:10:37.450Z,19.56
2022-11-20T07:13:04.096Z,19.61
2022-11-20T07:15:30.852Z,19.64
2022-11-20T07:17:59.733Z,19.67
2022-11-20T07:20:26.490Z,19.69
2022-11-20T07:22:57.006Z,19.73
2022-11-20T07:25:24.065Z,19.77
2022-11-20T07:27:50.643Z,19.82
2022-11-20T07:30:17.614Z,19.85
2022-11-20T07:32:54.977Z,19.90
2022-11-20T07:35:22.020Z,19.95
2022-11-20T07:37:49.710Z,19.98
2022-11-20T07:40:16.745Z,20.04
2022-11-20T07:42:56.719Z,20.06
2022-11-20T07:45:24.448Z,20.14
2022-11-20T07:47:51.200Z,20.17
2022-11-20T07:50:18.288Z,20.21
2022-11-20T07:52:51.816Z,20.26
2022-11-20T07:55:18.537Z,20.31
2022-11-20T07:57:45.272Z,20.36
2022-11-20T08:00:12.771Z,20.40
2022-11-20T08:02:40.514Z,20.46
2022-11-20T08:05:07.423Z,20.50
2022-11-20T08:07:40.786Z,20.55
2022-11-20T08:10:08.263Z,20.59
2022-11-20T08:12:59.127Z,20.66
2022-11-20T08:15:25.775Z,20.74
2022-11-20T08:18:15.547Z,20.76
2022-11-20T08:20:39.447Z,20.79
2022-11-20T08:23:07.623Z,20.82
2022-11-20T08:25:35.436Z,20.84
2022-11-20T08:28:10.280Z,20.88
2022-11-20T08:30:38.788Z,20.85
2022-11-20T08:33:12.125Z,20.88
2022-11-20T08:35:39.187Z,20.89
2022-11-20T08:38:06.756Z,20.89
2022-11-20T08:40:33.735Z,20.90
2022-11-20T08:43:01.411Z,20.90
2022-11-20T08:45:33.462Z,20.91
2022-11-20T08:48:02.095Z,20.90
2022-11-20T08:50:28.811Z,20.90
2022-11-20T08:53:02.809Z,20.91
2022-11-20T08:55:29.403Z,20.90
2022-11-20T08:57:56.029Z,20.90
2022-11-20T09:00:24.684Z,20.92
2022-11-20T09:03:02.328Z,20.91
2022-11-20T09:05:29.145Z,20.91
2022-11-20T09:07:59.167Z,20.89
2022-11-20T09:10:26.288Z,20.90
2022-11-20T09:12:58.495Z,20.89
2022-11-20T09:15:25.695Z,20.88
2022-11-20T09:17:59.411Z,20.89
2022-11-20T09:20:26.922Z,20.87
2022-11-20T09:23:02.938Z,20.88
2022-11-20T09:25:29.586Z,20.90
2022-11-20T09:27:56.844Z,20.80
2022-11-20T09:30:23.496Z,20.57
2022-11-20T09:33:00.397Z,20.60
2022-11-20T09:35:27.017Z,20.61
2022-11-20T09:38:00.138Z,20.61
2022-11-20T09:40:39.145Z,20.62
2022-11-20T09:43:25.792Z,20.62
2022-11-20T09:46:14.961Z,20.60
2022-11-20T09:49:04.222Z,20.57
2022-11-20T09:51:30.868Z,20.57
2022-11-20T09:54:06.845Z,20.59
2022-11-20T09:56:35.116Z,20.57
2022-11-20T09:59:12.475Z,20.59
2022-11-20T10:01:51.471Z,20.58
2022-11-20T10:04:19.294Z,20.58
2022-11-20T10:07:17.152Z,20.58
2022-11-20T10:09:44.433Z,20.55
2022-11-20T10:12:26.511Z,20.56
2022-11-20T10:15:03.577Z,20.56
2022-11-20T10:17:48.906Z,20.54
2022-11-20T10:20:24.757Z,20.55
2022-11-20T10:23:10.054Z,20.51
2022-11-20T10:25:51.726Z,20.48
2022-11-20T10:28:36.878Z,20.48
2022-11-20T10:31:11.621Z,20.44
2022-11-20T10:34:04.908Z,20.44
2022-11-20T10:36:29.259Z,20.44
2022-11-20T10:39:00.457Z,20.41
2022-11-20T10:41:38.400Z,20.41
2022-11-20T10:44:06.749Z,20.42
2022-11-20T10:46:46.380Z,20.42
2022-11-20T10:49:17.002Z,20.39
2022-11-20T10:51:43.589Z,20.35
2022-11-20T10:54:23.681Z,20.36
2022-11-20T10:56:54.729Z,20.35
2022-11-20T10:59:24.610Z,20.38
2022-11-20T11:01:51.423Z,20.40
2022-11-20T11:04:36.849Z,20.41
2022-11-20T11:07:11.509Z,20.41
2022-11-20T11:09:44.175Z,20.44
2022-11-20T11:12:14.605Z,20.44
2022-11-20T11:14:45.390Z,20.46
2022-11-20T11:17:23.536Z,20.47
2022-11-20T11:20:07.822Z,20.48
2022-11-20T11:22:35.750Z,20.49
2022-11-20T11:25:02.501Z,20.52
2022-11-20T11:27:29.309Z,20.53
2022-11-20T11:30:13.716Z,20.56
2022-11-20T11:32:55.921Z,20.59
2022-11-20T11:35:29.300Z,20.64
2022-11-20T11:38:03.940Z,20.67
2022-11-20T11:40:33.071Z,20.69
2022-11-20T11:43:05.310Z,20.74
2022-11-20T11:45:32.087Z,20.78
2022-11-20T11:48:01.510Z,20.81
2022-11-20T11:50:29.504Z,20.85
2022-11-20T11:52:56.134Z,20.88
2022-11-20T11:55:34.950Z,20.92
2022-11-20T11:58:10.749Z,20.94
2022-11-20T12:00:39.757Z,20.98
2022-11-20T12:03:10.431Z,21.04
2022-11-20T12:05:37.076Z,21.09
2022-11-20T12:08:12.161Z,21.15
2022-11-20T12:10:48.353Z,21.20
2022-11-20T12:13:35.266Z,21.26
2022-11-20T12:16:04.188Z,21.33
2022-11-20T12:18:31.805Z,21.38
2022-11-20T12:21:18.644Z,21.41
2022-11-20T12:24:03.934Z,21.47
2022-11-20T12:26:44.679Z,21.51
2022-11-20T12:29:18.003Z,21.54
2022-11-20T12:32:02.725Z,21.58
2022-11-20T12:34:35.133Z,21.60
2022-11-20T12:37:13.829Z,21.63
2022-11-20T12:39:43.700Z,21.68
2022-11-20T12:42:37.330Z,21.70
2022-11-20T12:45:24.876Z,21.73
2022-11-20T12:48:09.532Z,21.77
2022-11-20T12:51:14.074Z,21.79
2022-11-20T12:54:00.351Z,21.79
2022-11-20T12:56:30.024Z,21.79
2022-11-20T12:59:07.984Z,21.76
2022-11-20T13:01:51.521Z,21.73
2022-11-20T13:04:21.150Z,21.72
2022-11-20T13:06:47.978Z,21.71
2022-11-20T13:09:16.703Z,21.70
2022-11-20T13:11:46.291Z,21.70
2022-11-20T13:14:18.809Z,21.69
2022-11-20T13:17:06.221Z,21.69
2022-11-20T13:19:33.642Z,21.68
2022-11-20T13:22:00.371Z,21.67
2022-11-20T13:24:28.847Z,21.64
2022-11-20T13:27:01.861Z,21.64
2022-11-20T13:29:28.625Z,21.63
2022-11-20T13:32:07.921Z,21.64
2022-11-20T13:34:37.260Z,21.62
2022-11-20T13:37:05.086Z,21.63
2022-11-20T13:39:33.071Z,21.63
2022-11-20T13:42:01.444Z,21.62
2022-11-20T13:44:30.658Z,21.62
2022-11-20T13:46:57.262Z,21.62
2022-11-20T13:49:27.154Z,21.59
2022-11-20T13:52:00.653Z,21.56
2022-11-20T13:54:27.256Z,21.56
2022-11-20T13:57:15.205Z,21.57
2022-11-20T13:59:49.116Z,21.55
2022-11-20T14:02:17.635Z,21.53
2022-11-20T14:04:46.081Z,21.54
2022-11-20T14:07:13.324Z,21.54
2022-11-20T14:09:40.022Z,21.53
2022-11-20T14:12:15.386Z,21.49
2022-11-20T14:14:49.177Z,21.49
2022-11-20T14:17:23.529Z,21.49
2022-11-20T14:19:51.897Z,21.48
2022-11-20T14:22:21.631Z,21.46
2022-11-20T14:24:48.700Z,21.47
2022-11-20T14:27:16.715Z,21.46
2022-11-20T14:29:44.540Z,21.41
2022-11-20T14:32:11.486Z,21.37
2022-11-20T14:34:42.975Z,21.36
2022-11-20T14:37:16.762Z,21.33
2022-11-20T14:39:49.051Z,21.31
2022-11-20T14:42:17.302Z,21.32
2022-11-20T14:44:44.182Z,21.23
2022-11-20T14:47:13.091Z,21.19
2022-11-20T14:49:40.000Z,21.21
2022-11-20T14:52:12.780Z,21.16
2022-11-20T14:54:46.746Z,21.12
2022-11-20T14:57:24.121Z,21.08
2022-11-20T14:59:50.756Z,21.08
2022-11-20T15:02:18.687Z,21.09
2022-11-20T15:04:52.372Z,21.06
2022-11-20T15:07:35.928Z,21.03
2022-11-20T15:10:07.466Z,21.01
2022-11-20T15:12:36.045Z,20.99
2022-11-20T15:15:03.578Z,20.97
2022-11-20T15:17:31.496Z,20.96
2022-11-20T15:19:58.092Z,20.90
2022-11-20T15:22:24.661Z,20.91
2022-11-20T15:24:51.344Z,20.89
2022-11-20T15:27:17.956Z,20.88
2022-11-20T15:29:44.667Z,20.86
2022-11-20T15:32:13.530Z,20.86
2022-11-20T15:34:40.559Z,20.83
2022-11-20T15:37:07.246Z,20.82
2022-11-20T15:39:33.844Z,20.79
2022-11-20T15:42:00.566Z,20.79
2022-11-20T15:44:27.292Z,20.78
2022-11-20T15:46:53.995Z,20.79
2022-11-20T15:49:20.587Z,20.80
2022-11-20T15:51:53.253Z,20.76
2022-11-20T15:54:21.671Z,20.75
2022-11-20T15:56:49.656Z,20.75
2022-11-20T15:59:16.300Z,20.75
2022-11-20T16:01:43.475Z,20.69
2022-11-20T16:04:14.211Z,20.69
2022-11-20T16:06:40.811Z,20.70
2022-11-20T16:09:07.533Z,20.65
2022-11-20T16:11:34.580Z,20.62
2022-11-20T16:14:19.941Z,20.59
2022-11-20T16:16:46.661Z,20.58
2022-11-20T16:19:14.157Z,20.59
2022-11-20T16:21:42.649Z,20.59
2022-11-20T16:24:11.926Z,20.55
2022-11-20T16:26:38.572Z,20.55
2022-11-20T16:29:06.282Z,20.54
2022-11-20T16:31:33.457Z,20.51
2022-11-20T16:34:01.292Z,20.49
2022-11-20T16:36:28.741Z,20.46
2022-11-20T16:38:56.200Z,20.44
2022-11-20T16:41:22.923Z,20.41
2022-11-20T16:43:50.565Z,20.40
2022-11-20T16:46:18.405Z,20.36
2022-11-20T16:48:45.060Z,20.34
2022-11-20T16:51:12.629Z,20.31
2022-11-20T16:53:39.722Z,20.31
2022-11-20T16:56:13.761Z,20.29
2022-11-20T16:58:40.348Z,20.30
2022-11-20T17:01:11.126Z,20.27
2022-11-20T17:03:38.624Z,20.24
2022-11-20T17:06:16.224Z,20.23
2022-11-20T17:08:43.003Z,20.22
2022-11-20T17:11:10.767Z,20.20
2022-11-20T17:13:39.968Z,20.16
2022-11-20T17:16:08.551Z,20.14
2022-11-20T17:18:35.250Z,20.12
2022-11-20T17:21:05.515Z,20.09
2022-11-20T17:23:36.350Z,20.08
2022-11-20T17:26:08.993Z,20.07
2022-11-20T17:28:36.116Z,20.05
2022-11-20T17:31:03.940Z,20.04
2022-11-20T17:33:30.584Z,20.03
2022-11-20T17:35:57.392Z,19.98
2022-11-20T17:38:24.490Z,19.98
2022-11-20T17:40:51.203Z,19.95
2022-11-20T17:43:18.252Z,19.94
2022-11-20T17:45:45.221Z,19.93
2022-11-20T17:48:12.461Z,19.91
2022-11-20T17:50:39.123Z,19.91
2022-11-20T17:53:07.378Z,19.89
2022-11-20T17:55:55.769Z,19.87
2022-11-20T17:58:23.554Z,19.87
2022-11-20T18:00:51.697Z,19.85
2022-11-20T18:03:18.284Z,19.84
2022-11-20T18:05:44.899Z,19.83
2022-11-20T18:08:11.468Z,19.83
2022-11-20T18:10:38.676Z,19.82
2022-11-20T18:13:05.272Z,19.80
2022-11-20T18:15:31.828Z,19.80
2022-11-20T18:17:58.455Z,19.78
2022-11-20T18:20:31.089Z,19.76
2022-11-20T18:23:00.299Z,19.76
2022-11-20T18:25:26.936Z,19.74
2022-11-20T18:27:53.523Z,19.73
2022-11-20T18:30:20.170Z,19.74
2022-11-20T18:32:51.042Z,19.74
2022-11-20T18:35:17.625Z,19.73
2022-11-20T18:37:44.239Z,19.77
2022-11-20T18:40:11.295Z,19.81
2022-11-20T18:42:56.782Z,19.83
2022-11-20T18:45:23.513Z,19.83
2022-11-20T18:47:50.172Z,19.84
2022-11-20T18:50:16.838Z,19.86
2022-11-20T18:52:52.891Z,19.87
2022-11-20T18:55:19.500Z,19.89
2022-11-20T18:57:46.189Z,19.92
2022-11-20T19:00:13.096Z,19.93
2022-11-20T19:02:50.164Z,19.97
2022-11-20T19:05:17.128Z,19.99
2022-11-20T19:07:43.921Z,20.03
2022-11-20T19:10:10.901Z,20.06
2022-11-20T19:12:37.530Z,20.10
2022-11-20T19:15:04.412Z,20.12
2022-11-20T19:17:32.636Z,20.14
2022-11-20T19:20:00.379Z,20.18
2022-11-20T19:22:27.051Z,20.20
2022-11-20T19:24:53.627Z,20.24
2022-11-20T19:27:20.389Z,20.27
2022-11-20T19:29:46.976Z,20.32
2022-11-20T19:32:13.610Z,20.34
2022-11-20T19:34:40.325Z,20.37
2022-11-20T19:37:07.225Z,20.40
2022-11-20T19:39:35.702Z,20.43
2022-11-20T19:42:02.812Z,20.46
2022-11-20T19:44:29.389Z,20.49
2022-11-20T19:46:57.460Z,20.51
2022-11-20T19:49:24.252Z,20.54
2022-11-20T19:51:51.410Z,20.56
2022-11-20T19:54:18.302Z,20.57
2022-11-20T19:56:45.730Z,20.60
2022-11-20T19:59:12.524Z,20.63
2022-11-20T20:01:39.650Z,20.65
2022-11-20T20:04:07.225Z,20.66
2022-11-20T20:06:35.501Z,20.68
2022-11-20T20:09:05.566Z,20.70
2022-11-20T20:11:33.362Z,20.70
2022-11-20T20:14:04.039Z,20.72
2022-11-20T20:16:30.969Z,20.74
2022-11-20T20:18:58.538Z,20.74
2022-11-20T20:21:25.240Z,20.75
2022-11-20T20:23:55.763Z,20.75
2022-11-20T20:26:23.834Z,20.75
2022-11-20T20:28:50.906Z,20.76
2022-11-20T20:31:18.914Z,20.75
2022-11-20T20:33:45.759Z,20.76
2022-11-20T20:36:13.304Z,20.78
2022-11-20T20:38:40.079Z,20.79
2022-11-20T20:41:06.675Z,20.81
2022-11-20T20:43:53.164Z,20.83
2022-11-20T20:46:20.012Z,20.85
2022-11-20T20:48:51.476Z,20.85
2022-11-20T20:51:20.897Z,20.88
2022-11-20T20:53:47.564Z,20.89
2022-11-20T20:56:14.211Z,20.91
2022-11-20T20:58:40.886Z,20.92
2022-11-20T21:01:08.951Z,20.93
2022-11-20T21:03:35.951Z,20.94
2022-11-20T21:06:03.776Z,20.95
2022-11-20T21:08:30.363Z,20.96
2022-11-20T21:11:16.661Z,20.97
2022-11-20T21:13:43.983Z,20.99
2022-11-20T21:16:11.675Z,21.00
2022-11-20T21:18:38.737Z,21.00
2022-11-20T21:21:24.796Z,21.00
2022-11-20T21:23:53.579Z,21.00
2022-11-20T21:26:21.161Z,21.01
2022-11-20T21:28:47.852Z,21.01
2022-11-20T21:31:15.769Z,21.00
2022-11-20T21:33:47.441Z,20.90
2022-11-20T21:36:15.237Z,20.94
2022-11-20T21:38:42.128Z,20.97
2022-11-20T21:41:32.613Z,21.05
2022-11-20T21:44:32.059Z,21.08
2022-11-20T21:47:19.800Z,21.15
2022-11-20T21:50:06.628Z,21.20
2022-11-20T21:52:38.988Z,21.26
2022-11-20T21:55:05.847Z,21.27
2022-11-20T21:57:35.534Z,21.29
2022-11-20T22:00:02.682Z,21.32
2022-11-20T22:02:29.297Z,21.34
2022-11-20T22:04:56.078Z,21.35
2022-11-20T22:07:22.788Z,21.39
2022-11-20T22:09:49.540Z,21.40
2022-11-20T22:12:16.190Z,21.41
2022-11-20T22:14:42.811Z,21.41
2022-11-20T22:17:13.408Z,21.41
2022-11-20T22:19:40.003Z,21.42
2022-11-20T22:22:06.684Z,21.45
2022-11-20T22:24:33.580Z,21.44
2022-11-20T22:27:00.155Z,21.45
2022-11-20T22:29:26.742Z,21.46
2022-11-20T22:31:53.481Z,21.44
2022-11-20T22:34:20.350Z,21.44
2022-11-20T22:36:47.138Z,21.44
2022-11-20T22:39:13.735Z,21.42
2022-11-20T22:41:40.390Z,21.43
2022-11-20T22:44:07.972Z,21.41
2022-11-20T22:46:35.897Z,21.38
2022-11-20T22:49:04.005Z,21.38
2022-11-20T22:51:31.947Z,21.36
2022-11-20T22:53:58.500Z,21.34
2022-11-20T22:56:25.371Z,21.32
2022-11-20T22:58:52.511Z,21.32
2022-11-20T23:01:20.513Z,21.32
2022-11-20T23:03:48.480Z,21.31
2022-11-20T23:06:15.889Z,21.29
2022-11-20T23:08:42.730Z,21.24
2022-11-20T23:11:11.029Z,21.24
2022-11-20T23:13:37.862Z,21.21
2022-11-20T23:16:06.292Z,21.16
2022-11-20T23:18:35.483Z,21.15
2022-11-20T23:21:18.030Z,21.10
2022-11-20T23:23:48.215Z,21.07
2022-11-20T23:26:15.578Z,21.05
2022-11-20T23:28:42.968Z,21.06
2022-11-20T23:31:10.636Z,21.08
2022-11-20T23:33:37.912Z,21.11
2022-11-20T23:36:04.925Z,21.13
2022-11-20T23:38:31.543Z,21.15
2022-11-20T23:40:58.147Z,21.17
2022-11-20T23:43:25.298Z,21.18
2022-11-20T23:45:53.094Z,21.21
2022-11-20T23:48:20.372Z,21.23
2022-11-20T23:50:47.128Z,21.26
2022-11-20T23:53:14.669Z,21.29
2022-11-20T23:55:51.760Z,21.30
2022-11-20T23:58:18.785Z,21.33
